Lone Star, Texas
Current Conditions -  °F | °C
As of 8:55 AM on Thursday 23 Oct 2014 (Local Time) from KOSA Reporting Station
Clear Clear  
Wind Chill: 56°   Ceiling: Unl
Heat Index: 56°   Visibility: 10mi
Dew Point: 53°   Wind: 3mph
Humidity: 89%   Direction: 50°NE
Pressure: 30.19"   Gusts: NA
Location:  32.94°N, 94.71°W
Report Text: KOSA 231355Z AUTO 05003KT 10SM CLR 14/12 A3019 RMK AO1 T01350117
Loading
Personal Weather Stations






























Interactive Weather Map
Tropical Storm Tracking
New forecast layout! Learn more

10-Day Weather Forecast

Advertisements
Track Severe Weather on mobile